MSC Suez — HPMS — position and weather

sailwx.info

Track history (hours):
 
Tides and Currents Weather Stations Pressure Air Temp Water Temp Dewpoint Dewpoint Depression Visibility Wind Speed Wind Dir Waves Ship Positions

MSC Suez

Last reported at 2015-Apr-22 13:08 UTC. Time now 2015-May-06 20:30 UTC.
Position N 08°21' W 014°50'.
Warning: this ship's position is 14 days out of date.

Length 237 m; draft 10.3 m.

Type: Cargo ship. MMSI: 355289000.

Date/timePositionNaut miles runAvg speedWind from/ knotsBaromVisibWave heightAir tempDewpointWater temp
2015-Apr-22 13:08N 08°21' W 014°50'4316.6
2015-Apr-22 10:31N 08°47' W 015°25'1616.4
2015-Apr-22 09:34N 08°56' W 015°38'1716.6
2015-Apr-22 08:33N 09°08' W 015°50'2019.0
2015-Apr-22 07:30N 09°24' W 016°02'1718.1
2015-Apr-22 06:33N 09°38' W 016°12'1716.8
2015-Apr-22 05:33N 09°52' W 016°22'1917.0
2015-Apr-22 04:27N 10°07' W 016°33'2217.0
2015-Apr-22 03:09N 10°25' W 016°46'1016.7
2015-Apr-22 02:33N 10°33' W 016°52'1816.5
2015-Apr-22 01:27N 10°48' W 017°02'2316.5
2015-Apr-22 00:03N 11°10' W 017°09'817.1
2015-Apr-21 23:33N 11°18' W 017°11'1816.9
2015-Apr-21 22:30N 11°35' W 017°17'1916.7
2015-Apr-21 21:22N 11°53' W 017°23'1316.4
2015-Apr-21 20:34N 12°06' W 017°27'  
2015-Apr-15 16:33N 38°32' W 010°11'1716.2
2015-Apr-15 15:30N 38°49' W 010°11'1616.7
2015-Apr-15 14:33N 39°05' W 010°12'1716.5
2015-Apr-15 13:33N 39°21' W 010°11'65515.6
2015-Apr-13 19:31N 49°27' W 004°22'2416.4
2015-Apr-13 18:05N 49°39' W 003°51'1116.4
2015-Apr-13 17:24N 49°45' W 003°36'1316.0
2015-Apr-13 16:34N 49°52' W 003°18'1515.2
2015-Apr-13 15:33N 49°59' W 002°57'1414.0
2015-Apr-13 14:33N 50°02' W 002°36'1514.7
2015-Apr-13 13:33N 50°05' W 002°13'1515.0
2015-Apr-13 12:34N 50°03' W 001°50'1414.4
2015-Apr-13 11:33N 49°55' W 001°32'1716.9
2015-Apr-13 10:33N 49°49' W 001°07'1817.5
2015-Apr-13 09:33N 49°41' W 000°43'1817.8
2015-Apr-13 08:33N 49°34' W 000°18'1615.8
2015-Apr-13 07:34N 49°29' E 000°05'3 2.5
2015-Apr-13 06:31N 49°28' E 000°08'0 0.0
2015-Apr-13 05:28N 49°28' E 000°08'0 0.0
2015-Apr-13 04:29N 49°28' E 000°08'0 0.0
2015-Apr-13 03:32N 49°28' E 000°08'0 0.0
2015-Apr-13 02:32N 49°28' E 000°08'0 0.0
2015-Apr-13 01:29N 49°28' E 000°08'0 0.0
2015-Apr-13 00:32N 49°28' E 000°08'0 0.0
2015-Apr-12 23:29N 49°28' E 000°08'0 0.0
2015-Apr-12 22:32N 49°28' E 000°08'0 0.0
2015-Apr-12 21:29N 49°28' E 000°08'0 0.0
2015-Apr-12 20:32N 49°28' E 000°08'0 0.0
2015-Apr-12 19:29N 49°28' E 000°08'0 0.1
2015-Apr-12 18:33N 49°28' E 000°08'1110.6
2015-Apr-12 17:33N 49°32' W 000°07'9 9.0
2015-Apr-12 16:33N 49°40' W 000°11'1716.8
2015-Apr-12 15:33N 49°57' W 000°11'3115.3
2015-Apr-12 13:33N 50°27' W 000°03'  
Track history (hours):
 
Tides and Currents Weather Stations Pressure Air Temp Water Temp Dewpoint Dewpoint Depression Visibility Wind Speed Wind Dir Waves Ship Positions

MSC Suez

Last reported at 2015-Apr-22 13:08 UTC. Time now 2015-May-06 20:31 UTC.
Position N 08°21' W 014°50'.
Warning: this ship's position is 14 days out of date.

Length 237 m; draft 10.3 m.

Type: Cargo ship. MMSI: 355289000.

Date/timePositionNaut miles runAvg speedWind from/ knotsBaromVisibWave heightAir tempDewpointWater temp
2015-Apr-22 13:08N 08°21' W 014°50'4316.6
2015-Apr-22 10:31N 08°47' W 015°25'1616.4
2015-Apr-22 09:34N 08°56' W 015°38'1716.6
2015-Apr-22 08:33N 09°08' W 015°50'2019.0
2015-Apr-22 07:30N 09°24' W 016°02'1718.1
2015-Apr-22 06:33N 09°38' W 016°12'1716.8
2015-Apr-22 05:33N 09°52' W 016°22'1917.0
2015-Apr-22 04:27N 10°07' W 016°33'2217.0
2015-Apr-22 03:09N 10°25' W 016°46'1016.7
2015-Apr-22 02:33N 10°33' W 016°52'1816.5
2015-Apr-22 01:27N 10°48' W 017°02'2316.5
2015-Apr-22 00:03N 11°10' W 017°09'817.1
2015-Apr-21 23:33N 11°18' W 017°11'1816.9
2015-Apr-21 22:30N 11°35' W 017°17'1916.7
2015-Apr-21 21:22N 11°53' W 017°23'1316.4
2015-Apr-21 20:34N 12°06' W 017°27'  
2015-Apr-15 16:33N 38°32' W 010°11'1716.2
2015-Apr-15 15:30N 38°49' W 010°11'1616.7
2015-Apr-15 14:33N 39°05' W 010°12'1716.5
2015-Apr-15 13:33N 39°21' W 010°11'65515.6
2015-Apr-13 19:31N 49°27' W 004°22'2416.4
2015-Apr-13 18:05N 49°39' W 003°51'1116.4
2015-Apr-13 17:24N 49°45' W 003°36'1316.0
2015-Apr-13 16:34N 49°52' W 003°18'1515.2
2015-Apr-13 15:33N 49°59' W 002°57'1414.0
2015-Apr-13 14:33N 50°02' W 002°36'1514.7
2015-Apr-13 13:33N 50°05' W 002°13'1515.0
2015-Apr-13 12:34N 50°03' W 001°50'1414.4
2015-Apr-13 11:33N 49°55' W 001°32'1716.9
2015-Apr-13 10:33N 49°49' W 001°07'1817.5
2015-Apr-13 09:33N 49°41' W 000°43'1817.8
2015-Apr-13 08:33N 49°34' W 000°18'1615.8
2015-Apr-13 07:34N 49°29' E 000°05'3 2.5
2015-Apr-13 06:31N 49°28' E 000°08'0 0.0
2015-Apr-13 05:28N 49°28' E 000°08'0 0.0
2015-Apr-13 04:29N 49°28' E 000°08'0 0.0
2015-Apr-13 03:32N 49°28' E 000°08'0 0.0
2015-Apr-13 02:32N 49°28' E 000°08'0 0.0
2015-Apr-13 01:29N 49°28' E 000°08'0 0.0
2015-Apr-13 00:32N 49°28' E 000°08'0 0.0
2015-Apr-12 23:29N 49°28' E 000°08'0 0.0
2015-Apr-12 22:32N 49°28' E 000°08'0 0.0
2015-Apr-12 21:29N 49°28' E 000°08'0 0.0
2015-Apr-12 20:32N 49°28' E 000°08'0 0.0
2015-Apr-12 19:29N 49°28' E 000°08'0 0.1
2015-Apr-12 18:33N 49°28' E 000°08'1110.6
2015-Apr-12 17:33N 49°32' W 000°07'9 9.0
2015-Apr-12 16:33N 49°40' W 000°11'1716.8
2015-Apr-12 15:33N 49°57' W 000°11'3115.3
2015-Apr-12 13:33N 50°27' W 000°03'  

Dump ship's entire track history